sensor_id;sensor_type;location;lat;lon;timestamp;pressure;altitude;pressure_sealevel;temperature;humidity
72118;BME280;59992;47.490;8.736;2022-07-01T00:01:43;96681.17;;;14.43;89.11
72118;BME280;59992;47.490;8.736;2022-07-01T00:04:31;96666.99;;;14.46;90.69
72118;BME280;59992;47.490;8.736;2022-07-01T00:07:20;96648.10;;;14.49;89.27
72118;BME280;59992;47.490;8.736;2022-07-01T00:10:09;96642.75;;;14.48;88.59
72118;BME280;59992;47.490;8.736;2022-07-01T00:12:58;96625.84;;;14.45;88.32
72118;BME280;59992;47.490;8.736;2022-07-01T00:15:46;96618.00;;;14.42;88.07
72118;BME280;59992;47.490;8.736;2022-07-01T00:18:35;96628.52;;;14.36;89.28
72118;BME280;59992;47.490;8.736;2022-07-01T00:21:23;96628.05;;;14.26;89.10
72118;BME280;59992;47.490;8.736;2022-07-01T00:24:12;96612.42;;;14.20;90.21
72118;BME280;59992;47.490;8.736;2022-07-01T00:27:00;96616.08;;;14.19;88.92
72118;BME280;59992;47.490;8.736;2022-07-01T00:29:49;96609.91;;;14.22;88.35
72118;BME280;59992;47.490;8.736;2022-07-01T00:32:37;96614.63;;;14.19;89.58
72118;BME280;59992;47.490;8.736;2022-07-01T00:35:26;96609.30;;;14.13;89.82
72118;BME280;59992;47.490;8.736;2022-07-01T00:38:14;96595.05;;;14.12;91.62
72118;BME280;59992;47.490;8.736;2022-07-01T00:41:02;96595.20;;;14.14;91.03
72118;BME280;59992;47.490;8.736;2022-07-01T00:43:51;96592.70;;;14.15;91.35
72118;BME280;59992;47.490;8.736;2022-07-01T00:46:40;96602.30;;;14.16;90.34
72118;BME280;59992;47.490;8.736;2022-07-01T00:49:29;96607.26;;;14.12;88.56
72118;BME280;59992;47.490;8.736;2022-07-01T00:52:18;96607.09;;;14.10;90.36
72118;BME280;59992;47.490;8.736;2022-07-01T00:55:09;96600.31;;;14.08;90.58
72118;BME280;59992;47.490;8.736;2022-07-01T00:57:58;96605.35;;;14.09;91.56
72118;BME280;59992;47.490;8.736;2022-07-01T01:00:47;96603.67;;;14.04;89.36
72118;BME280;59992;47.490;8.736;2022-07-01T01:03:36;96607.79;;;14.03;88.43
72118;BME280;59992;47.490;8.736;2022-07-01T01:06:25;96610.98;;;13.97;89.50
72118;BME280;59992;47.490;8.736;2022-07-01T01:09:14;96610.83;;;13.96;89.25
72118;BME280;59992;47.490;8.736;2022-07-01T01:12:03;96604.66;;;13.94;88.77
72118;BME280;59992;47.490;8.736;2022-07-01T01:14:51;96607.41;;;13.90;89.23
72118;BME280;59992;47.490;8.736;2022-07-01T01:17:40;96620.48;;;13.84;89.20
72118;BME280;59992;47.490;8.736;2022-07-01T01:20:33;96615.01;;;13.82;90.09
72118;BME280;59992;47.490;8.736;2022-07-01T01:23:22;96614.55;;;13.83;89.99
72118;BME280;59992;47.490;8.736;2022-07-01T01:26:18;96612.04;;;13.85;89.06
72118;BME280;59992;47.490;8.736;2022-07-01T01:29:07;96599.40;;;13.86;88.89
72118;BME280;59992;47.490;8.736;2022-07-01T01:31:56;96604.20;;;13.88;90.65
72118;BME280;59992;47.490;8.736;2022-07-01T01:34:45;96605.48;;;13.91;88.81
72118;BME280;59992;47.490;8.736;2022-07-01T01:37:33;96586.84;;;13.93;89.32
72118;BME280;59992;47.490;8.736;2022-07-01T01:40:22;96587.84;;;14.00;90.43
72118;BME280;59992;47.490;8.736;2022-07-01T01:43:11;96589.27;;;13.98;88.61
72118;BME280;59992;47.490;8.736;2022-07-01T01:45:59;96594.38;;;13.98;89.41
72118;BME280;59992;47.490;8.736;2022-07-01T01:48:49;96590.80;;;13.96;88.77
72118;BME280;59992;47.490;8.736;2022-07-01T01:51:38;96579.84;;;13.99;90.36
72118;BME280;59992;47.490;8.736;2022-07-01T01:54:26;96574.27;;;14.04;91.20
72118;BME280;59992;47.490;8.736;2022-07-01T01:57:15;96567.73;;;14.09;90.26
72118;BME280;59992;47.490;8.736;2022-07-01T02:00:06;96562.48;;;14.14;90.69
72118;BME280;59992;47.490;8.736;2022-07-01T02:02:55;96567.27;;;14.14;89.56
72118;BME280;59992;47.490;8.736;2022-07-01T02:05:43;96581.90;;;14.07;89.53
72118;BME280;59992;47.490;8.736;2022-07-01T02:08:32;96585.78;;;14.06;89.93
72118;BME280;59992;47.490;8.736;2022-07-01T02:11:21;96587.68;;;14.08;90.21
72118;BME280;59992;47.490;8.736;2022-07-01T02:14:09;96599.02;;;14.08;89.84
72118;BME280;59992;47.490;8.736;2022-07-01T02:16:58;96608.54;;;14.11;90.07
72118;BME280;59992;47.490;8.736;2022-07-01T02:19:46;96615.55;;;14.13;89.96
72118;BME280;59992;47.490;8.736;2022-07-01T02:22:35;96624.45;;;14.10;89.56
72118;BME280;59992;47.490;8.736;2022-07-01T02:25:24;96633.98;;;14.09;90.96
72118;BME280;59992;47.490;8.736;2022-07-01T02:28:12;96643.35;;;14.08;89.79
72118;BME280;59992;47.490;8.736;2022-07-01T02:31:00;96660.04;;;14.07;88.65
72118;BME280;59992;47.490;8.736;2022-07-01T02:33:50;96667.72;;;14.07;89.33
72118;BME280;59992;47.490;8.736;2022-07-01T02:36:39;96673.42;;;14.04;89.32
72118;BME280;59992;47.490;8.736;2022-07-01T02:39:27;96683.17;;;13.99;89.41
72118;BME280;59992;47.490;8.736;2022-07-01T02:42:16;96701.83;;;13.97;89.60
72118;BME280;59992;47.490;8.736;2022-07-01T02:45:23;96707.02;;;14.00;89.13
72118;BME280;59992;47.490;8.736;2022-07-01T02:48:13;96712.17;;;13.98;89.82
72118;BME280;59992;47.490;8.736;2022-07-01T02:51:01;96712.40;;;13.94;89.02
72118;BME280;59992;47.490;8.736;2022-07-01T02:53:53;96711.11;;;13.92;89.22
72118;BME280;59992;47.490;8.736;2022-07-01T02:56:42;96719.17;;;13.90;88.35
72118;BME280;59992;47.490;8.736;2022-07-01T02:59:30;96724.16;;;13.80;88.28
72118;BME280;59992;47.490;8.736;2022-07-01T03:02:19;96718.89;;;13.73;88.00
72118;BME280;59992;47.490;8.736;2022-07-01T03:05:09;96718.64;;;13.67;88.13
72118;BME280;59992;47.490;8.736;2022-07-01T03:07:58;96727.02;;;13.67;88.24
72118;BME280;59992;47.490;8.736;2022-07-01T03:10:46;96726.46;;;13.58;87.59
72118;BME280;59992;47.490;8.736;2022-07-01T03:13:35;96737.63;;;13.56;88.09
72118;BME280;59992;47.490;8.736;2022-07-01T03:16:24;96744.11;;;13.58;87.81
72118;BME280;59992;47.490;8.736;2022-07-01T03:19:12;96752.30;;;13.54;88.60
72118;BME280;59992;47.490;8.736;2022-07-01T03:22:01;96751.00;;;13.49;87.90
72118;BME280;59992;47.490;8.736;2022-07-01T03:24:51;96755.45;;;13.42;87.94
72118;BME280;59992;47.490;8.736;2022-07-01T03:27:40;96765.86;;;13.39;87.63
72118;BME280;59992;47.490;8.736;2022-07-01T03:30:32;96765.64;;;13.39;87.83
72118;BME280;59992;47.490;8.736;2022-07-01T03:33:22;96769.57;;;13.36;88.87
72118;BME280;59992;47.490;8.736;2022-07-01T03:36:10;96770.51;;;13.27;87.79
72118;BME280;59992;47.490;8.736;2022-07-01T03:38:59;96778.98;;;13.19;88.31
72118;BME280;59992;47.490;8.736;2022-07-01T03:41:48;96786.73;;;13.18;88.75
72118;BME280;59992;47.490;8.736;2022-07-01T03:44:37;96791.27;;;13.16;89.53
72118;BME280;59992;47.490;8.736;2022-07-01T03:47:26;96790.08;;;13.17;89.25
72118;BME280;59992;47.490;8.736;2022-07-01T03:50:15;96800.63;;;13.16;88.86
72118;BME280;59992;47.490;8.736;2022-07-01T03:53:04;96802.59;;;13.12;88.84
72118;BME280;59992;47.490;8.736;2022-07-01T03:56:11;96802.85;;;13.07;88.16
72118;BME280;59992;47.490;8.736;2022-07-01T03:58:59;96809.63;;;13.08;88.91
72118;BME280;59992;47.490;8.736;2022-07-01T04:01:48;96810.54;;;13.08;89.08
72118;BME280;59992;47.490;8.736;2022-07-01T04:04:36;96799.27;;;13.06;89.46
72118;BME280;59992;47.490;8.736;2022-07-01T04:07:25;96798.39;;;13.09;89.60
72118;BME280;59992;47.490;8.736;2022-07-01T04:10:14;96804.48;;;13.10;89.24
72118;BME280;59992;47.490;8.736;2022-07-01T04:13:03;96808.80;;;13.08;88.70
72118;BME280;59992;47.490;8.736;2022-07-01T04:15:52;96811.15;;;13.07;89.08
72118;BME280;59992;47.490;8.736;2022-07-01T04:18:41;96800.29;;;13.10;88.98
72118;BME280;59992;47.490;8.736;2022-07-01T04:21:29;96809.48;;;13.10;89.04
72118;BME280;59992;47.490;8.736;2022-07-01T04:24:37;96805.70;;;13.11;89.43
72118;BME280;59992;47.490;8.736;2022-07-01T04:27:25;96808.38;;;13.12;89.82
72118;BME280;59992;47.490;8.736;2022-07-01T04:30:14;96812.84;;;13.11;88.81
72118;BME280;59992;47.490;8.736;2022-07-01T04:33:03;96810.23;;;13.01;88.63
72118;BME280;59992;47.490;8.736;2022-07-01T04:35:51;96804.30;;;13.01;88.75
72118;BME280;59992;47.490;8.736;2022-07-01T04:38:40;96802.22;;;12.97;88.59
72118;BME280;59992;47.490;8.736;2022-07-01T04:41:29;96806.59;;;13.02;90.43
72118;BME280;59992;47.490;8.736;2022-07-01T04:44:38;96810.84;;;13.00;88.43
72118;BME280;59992;47.490;8.736;2022-07-01T04:47:26;96815.08;;;12.98;88.01
72118;BME280;59992;47.490;8.736;2022-07-01T04:50:20;96803.98;;;12.98;87.87
72118;BME280;59992;47.490;8.736;2022-07-01T04:53:08;96800.55;;;12.97;88.69
72118;BME280;59992;47.490;8.736;2022-07-01T04:55:57;96799.19;;;12.98;87.96
72118;BME280;59992;47.490;8.736;2022-07-01T04:58:45;96798.23;;;13.03;88.94
72118;BME280;59992;47.490;8.736;2022-07-01T05:01:34;96801.05;;;13.09;89.26
72118;BME280;59992;47.490;8.736;2022-07-01T05:04:23;96798.36;;;13.05;88.52
72118;BME280;59992;47.490;8.736;2022-07-01T05:07:11;96795.74;;;13.12;89.62
72118;BME280;59992;47.490;8.736;2022-07-01T05:10:15;96797.35;;;13.14;89.31
72118;BME280;59992;47.490;8.736;2022-07-01T05:13:03;96813.79;;;13.16;90.43
72118;BME280;59992;47.490;8.736;2022-07-01T05:15:52;96813.91;;;13.22;90.36
72118;BME280;59992;47.490;8.736;2022-07-01T05:18:40;96816.21;;;13.27;89.82
72118;BME280;59992;47.490;8.736;2022-07-01T05:21:47;96814.29;;;13.33;89.23
72118;BME280;59992;47.490;8.736;2022-07-01T05:24:45;96805.84;;;13.34;89.29
72118;BME280;59992;47.490;8.736;2022-07-01T05:27:34;96794.23;;;13.39;88.78
72118;BME280;59992;47.490;8.736;2022-07-01T05:30:23;96801.31;;;13.41;88.80
72118;BME280;59992;47.490;8.736;2022-07-01T05:33:11;96820.98;;;13.47;89.11
72118;BME280;59992;47.490;8.736;2022-07-01T05:36:00;96836.27;;;13.47;88.64
72118;BME280;59992;47.490;8.736;2022-07-01T05:38:49;96847.94;;;13.49;88.56
72118;BME280;59992;47.490;8.736;2022-07-01T05:41:37;96854.80;;;13.52;88.51
72118;BME280;59992;47.490;8.736;2022-07-01T05:44:27;96856.77;;;13.48;87.73
72118;BME280;59992;47.490;8.736;2022-07-01T05:47:15;96851.96;;;13.48;88.32
72118;BME280;59992;47.490;8.736;2022-07-01T05:50:05;96854.72;;;13.50;88.75
72118;BME280;59992;47.490;8.736;2022-07-01T05:52:54;96861.51;;;13.53;89.32
72118;BME280;59992;47.490;8.736;2022-07-01T05:55:43;96873.76;;;13.51;87.62
72118;BME280;59992;47.490;8.736;2022-07-01T05:58:31;96880.45;;;13.54;89.36
72118;BME280;59992;47.490;8.736;2022-07-01T06:01:19;96874.66;;;13.65;91.12
72118;BME280;59992;47.490;8.736;2022-07-01T06:04:08;96873.85;;;13.69;89.21
72118;BME280;59992;47.490;8.736;2022-07-01T06:06:56;96873.02;;;13.68;86.88
72118;BME280;59992;47.490;8.736;2022-07-01T06:09:45;96866.82;;;13.63;87.64
72118;BME280;59992;47.490;8.736;2022-07-01T06:12:34;96864.83;;;13.62;87.59
72118;BME280;59992;47.490;8.736;2022-07-01T06:15:22;96864.89;;;13.60;88.55
72118;BME280;59992;47.490;8.736;2022-07-01T06:18:11;96872.76;;;13.63;88.84
72118;BME280;59992;47.490;8.736;2022-07-01T06:21:00;96879.45;;;13.63;87.23
72118;BME280;59992;47.490;8.736;2022-07-01T06:23:51;96875.03;;;13.63;86.60
72118;BME280;59992;47.490;8.736;2022-07-01T06:26:39;96868.95;;;13.66;88.80
72118;BME280;59992;47.490;8.736;2022-07-01T06:29:28;96873.61;;;13.67;88.80
72118;BME280;59992;47.490;8.736;2022-07-01T06:32:17;96870.23;;;13.63;87.40
72118;BME280;59992;47.490;8.736;2022-07-01T06:35:08;96869.10;;;13.63;88.71
72118;BME280;59992;47.490;8.736;2022-07-01T06:37:56;96859.77;;;13.57;86.72
72118;BME280;59992;47.490;8.736;2022-07-01T06:40:45;96848.86;;;13.52;87.32
72118;BME280;59992;47.490;8.736;2022-07-01T06:43:55;96847.95;;;13.64;89.50
72118;BME280;59992;47.490;8.736;2022-07-01T06:46:43;96858.41;;;13.70;87.53
72118;BME280;59992;47.490;8.736;2022-07-01T06:49:32;96861.11;;;13.77;87.86
72118;BME280;59992;47.490;8.736;2022-07-01T06:52:20;96858.39;;;13.82;87.80
72118;BME280;59992;47.490;8.736;2022-07-01T06:55:09;96862.09;;;13.91;87.25
72118;BME280;59992;47.490;8.736;2022-07-01T06:57:58;96856.27;;;14.03;86.56
72118;BME280;59992;47.490;8.736;2022-07-01T07:00:46;96856.55;;;14.10;86.29
72118;BME280;59992;47.490;8.736;2022-07-01T07:03:35;96861.62;;;14.20;86.62
72118;BME280;59992;47.490;8.736;2022-07-01T07:06:24;96862.98;;;14.25;85.07
72118;BME280;59992;47.490;8.736;2022-07-01T07:09:12;96854.82;;;14.19;84.32
72118;BME280;59992;47.490;8.736;2022-07-01T07:12:01;96828.17;;;14.24;84.07
72118;BME280;59992;47.490;8.736;2022-07-01T07:14:49;96835.08;;;14.28;84.63
72118;BME280;59992;47.490;8.736;2022-07-01T07:17:38;96854.05;;;14.30;85.43
72118;BME280;59992;47.490;8.736;2022-07-01T07:20:27;96858.85;;;14.32;86.44
72118;BME280;59992;47.490;8.736;2022-07-01T07:23:16;96858.27;;;14.39;84.85
72118;BME280;59992;47.490;8.736;2022-07-01T07:26:04;96863.48;;;14.49;85.15
72118;BME280;59992;47.490;8.736;2022-07-01T07:28:53;96873.31;;;14.56;86.16
72118;BME280;59992;47.490;8.736;2022-07-01T07:31:41;96873.88;;;14.61;86.09
72118;BME280;59992;47.490;8.736;2022-07-01T07:34:30;96862.30;;;14.63;84.41
72118;BME280;59992;47.490;8.736;2022-07-01T07:37:18;96859.32;;;14.66;82.53
72118;BME280;59992;47.490;8.736;2022-07-01T07:40:09;96859.93;;;14.62;82.04
72118;BME280;59992;47.490;8.736;2022-07-01T07:43:08;96869.08;;;14.63;83.39
72118;BME280;59992;47.490;8.736;2022-07-01T07:45:57;96878.98;;;14.64;85.26
72118;BME280;59992;47.490;8.736;2022-07-01T07:48:45;96889.81;;;14.69;85.31
72118;BME280;59992;47.490;8.736;2022-07-01T07:51:33;96896.38;;;14.70;84.38
72118;BME280;59992;47.490;8.736;2022-07-01T07:54:22;96893.27;;;14.73;85.50
72118;BME280;59992;47.490;8.736;2022-07-01T07:57:10;96888.98;;;14.73;84.72
72118;BME280;59992;47.490;8.736;2022-07-01T07:59:59;96882.14;;;14.76;84.67
72118;BME280;59992;47.490;8.736;2022-07-01T08:02:47;96883.67;;;14.85;84.14
72118;BME280;59992;47.490;8.736;2022-07-01T08:05:37;96887.50;;;14.94;83.38
72118;BME280;59992;47.490;8.736;2022-07-01T08:08:25;96896.11;;;14.97;84.80
72118;BME280;59992;47.490;8.736;2022-07-01T08:11:19;96894.98;;;14.94;83.28
72118;BME280;59992;47.490;8.736;2022-07-01T08:14:08;96901.14;;;14.88;83.07
72118;BME280;59992;47.490;8.736;2022-07-01T08:16:56;96893.98;;;14.84;85.78
72118;BME280;59992;47.490;8.736;2022-07-01T08:19:45;96891.21;;;14.87;85.28
72118;BME280;59992;47.490;8.736;2022-07-01T08:22:33;96897.64;;;14.87;83.23
72118;BME280;59992;47.490;8.736;2022-07-01T08:25:22;96907.10;;;14.87;83.50
72118;BME280;59992;47.490;8.736;2022-07-01T08:28:10;96906.55;;;14.83;84.55
72118;BME280;59992;47.490;8.736;2022-07-01T08:30:59;96904.55;;;14.79;83.65
72118;BME280;59992;47.490;8.736;2022-07-01T08:33:47;96907.75;;;14.78;83.94
72118;BME280;59992;47.490;8.736;2022-07-01T08:36:36;96900.21;;;14.84;82.97
72118;BME280;59992;47.490;8.736;2022-07-01T08:39:25;96895.65;;;14.86;83.19
72118;BME280;59992;47.490;8.736;2022-07-01T08:42:13;96892.77;;;14.92;82.14
72118;BME280;59992;47.490;8.736;2022-07-01T08:45:03;96899.92;;;14.92;81.28
72118;BME280;59992;47.490;8.736;2022-07-01T08:47:54;96906.93;;;14.86;83.89
72118;BME280;59992;47.490;8.736;2022-07-01T08:50:45;96906.47;;;14.83;83.39
72118;BME280;59992;47.490;8.736;2022-07-01T08:53:34;96908.52;;;14.77;82.83
72118;BME280;59992;47.490;8.736;2022-07-01T08:56:23;96911.09;;;14.71;83.37
72118;BME280;59992;47.490;8.736;2022-07-01T08:59:31;96920.47;;;14.67;83.68
72118;BME280;59992;47.490;8.736;2022-07-01T09:02:20;96934.19;;;14.65;83.16
72118;BME280;59992;47.490;8.736;2022-07-01T09:05:09;96938.28;;;14.59;83.05
72118;BME280;59992;47.490;8.736;2022-07-01T09:08:01;96936.27;;;14.53;84.17
72118;BME280;59992;47.490;8.736;2022-07-01T09:10:50;96932.70;;;14.55;83.73
72118;BME280;59992;47.490;8.736;2022-07-01T09:13:38;96929.14;;;14.60;82.92
72118;BME280;59992;47.490;8.736;2022-07-01T09:16:27;96933.81;;;14.66;85.31
72118;BME280;59992;47.490;8.736;2022-07-01T09:19:18;96937.88;;;14.79;85.78
72118;BME280;59992;47.490;8.736;2022-07-01T09:22:07;96938.75;;;14.94;84.73
72118;BME280;59992;47.490;8.736;2022-07-01T09:24:55;96943.11;;;15.04;83.32
72118;BME280;59992;47.490;8.736;2022-07-01T09:27:44;96938.33;;;15.16;83.99
72118;BME280;59992;47.490;8.736;2022-07-01T09:30:32;96941.24;;;15.33;83.61
72118;BME280;59992;47.490;8.736;2022-07-01T09:33:22;96931.19;;;15.42;82.04
72118;BME280;59992;47.490;8.736;2022-07-01T09:36:15;96944.25;;;15.69;81.44
72118;BME280;59992;47.490;8.736;2022-07-01T09:39:05;96942.84;;;15.84;80.56
72118;BME280;59992;47.490;8.736;2022-07-01T09:41:59;96946.34;;;15.88;78.46
72118;BME280;59992;47.490;8.736;2022-07-01T09:44:54;96949.05;;;16.12;76.85
72118;BME280;59992;47.490;8.736;2022-07-01T09:47:43;96954.14;;;16.24;78.43
72118;BME280;59992;47.490;8.736;2022-07-01T09:50:32;96956.51;;;16.26;78.34
72118;BME280;59992;47.490;8.736;2022-07-01T09:53:24;96962.92;;;16.28;77.05
72118;BME280;59992;47.490;8.736;2022-07-01T09:56:13;96967.05;;;16.29;77.18
72118;BME280;59992;47.490;8.736;2022-07-01T09:59:02;96963.23;;;16.19;75.46
72118;BME280;59992;47.490;8.736;2022-07-01T10:01:51;96962.52;;;16.08;76.74
72118;BME280;59992;47.490;8.736;2022-07-01T10:04:42;96962.60;;;16.04;77.27
72118;BME280;59992;47.490;8.736;2022-07-01T10:07:44;96958.63;;;16.00;76.82
72118;BME280;59992;47.490;8.736;2022-07-01T10:10:44;96957.63;;;16.05;78.23
72118;BME280;59992;47.490;8.736;2022-07-01T10:13:33;96951.34;;;16.13;77.10
72118;BME280;59992;47.490;8.736;2022-07-01T10:16:24;96958.51;;;16.22;77.06
72118;BME280;59992;47.490;8.736;2022-07-01T10:19:29;96963.54;;;16.26;77.04
72118;BME280;59992;47.490;8.736;2022-07-01T10:22:29;96969.27;;;16.26;76.30
72118;BME280;59992;47.490;8.736;2022-07-01T10:25:40;96979.18;;;16.33;75.42
72118;BME280;59992;47.490;8.736;2022-07-01T10:28:39;96983.91;;;16.36;75.12
72118;BME280;59992;47.490;8.736;2022-07-01T10:31:36;96987.19;;;16.41;76.55
72118;BME280;59992;47.490;8.736;2022-07-01T10:34:25;96991.00;;;16.43;76.44
72118;BME280;59992;47.490;8.736;2022-07-01T10:37:22;96995.89;;;16.43;77.25
72118;BME280;59992;47.490;8.736;2022-07-01T10:40:11;96997.91;;;16.35;76.37
72118;BME280;59992;47.490;8.736;2022-07-01T10:43:00;96996.08;;;16.35;77.59
72118;BME280;59992;47.490;8.736;2022-07-01T10:45:48;96992.63;;;16.34;76.74
72118;BME280;59992;47.490;8.736;2022-07-01T10:48:37;96997.85;;;16.30;76.25
72118;BME280;59992;47.490;8.736;2022-07-01T10:51:43;97002.44;;;16.26;77.58
72118;BME280;59992;47.490;8.736;2022-07-01T10:54:52;97008.63;;;16.29;78.26
72118;BME280;59992;47.490;8.736;2022-07-01T10:57:43;97010.14;;;16.33;77.49
72118;BME280;59992;47.490;8.736;2022-07-01T11:00:34;97010.73;;;16.42;76.96
72118;BME280;59992;47.490;8.736;2022-07-01T11:03:23;97014.02;;;16.54;76.22
72118;BME280;59992;47.490;8.736;2022-07-01T11:06:12;97014.52;;;16.64;74.69
72118;BME280;59992;47.490;8.736;2022-07-01T11:09:00;97018.70;;;16.72;73.73
72118;BME280;59992;47.490;8.736;2022-07-01T11:11:49;97018.73;;;16.83;73.73
72118;BME280;59992;47.490;8.736;2022-07-01T11:14:39;97020.93;;;16.88;75.63
72118;BME280;59992;47.490;8.736;2022-07-01T11:17:28;97017.91;;;16.92;74.26
72118;BME280;59992;47.490;8.736;2022-07-01T11:20:17;97014.58;;;17.05;74.28
72118;BME280;59992;47.490;8.736;2022-07-01T11:23:05;97010.59;;;17.21;72.99
72118;BME280;59992;47.490;8.736;2022-07-01T11:25:54;97022.30;;;17.45;71.55
72118;BME280;59992;47.490;8.736;2022-07-01T11:28:42;97024.14;;;17.71;71.81
72118;BME280;59992;47.490;8.736;2022-07-01T11:31:33;97026.38;;;17.96;69.97
72118;BME280;59992;47.490;8.736;2022-07-01T11:34:21;97029.45;;;18.14;68.17
72118;BME280;59992;47.490;8.736;2022-07-01T11:37:10;97023.41;;;18.34;68.09
72118;BME280;59992;47.490;8.736;2022-07-01T11:40:17;97023.67;;;18.56;67.78
72118;BME280;59992;47.490;8.736;2022-07-01T11:43:19;97017.05;;;18.72;66.93
72118;BME280;59992;47.490;8.736;2022-07-01T11:46:08;97019.77;;;19.00;66.21
72118;BME280;59992;47.490;8.736;2022-07-01T11:48:56;97015.21;;;19.20;64.51
72118;BME280;59992;47.490;8.736;2022-07-01T11:51:54;97013.82;;;19.38;64.37
72118;BME280;59992;47.490;8.736;2022-07-01T11:54:45;97013.09;;;19.41;63.39
72118;BME280;59992;47.490;8.736;2022-07-01T11:57:34;97011.21;;;19.32;64.05
72118;BME280;59992;47.490;8.736;2022-07-01T12:00:33;97010.36;;;19.26;65.64
72118;BME280;59992;47.490;8.736;2022-07-01T12:03:31;97009.45;;;19.38;64.58
72118;BME280;59992;47.490;8.736;2022-07-01T12:06:20;97010.44;;;19.44;64.51
72118;BME280;59992;47.490;8.736;2022-07-01T12:09:13;97009.42;;;19.28;64.44
72118;BME280;59992;47.490;8.736;2022-07-01T12:12:05;97008.02;;;19.22;64.95
72118;BME280;59992;47.490;8.736;2022-07-01T12:14:55;97008.57;;;19.27;64.24
72118;BME280;59992;47.490;8.736;2022-07-01T12:17:44;97007.73;;;19.35;67.79
72118;BME280;59992;47.490;8.736;2022-07-01T12:20:32;97005.27;;;19.45;64.44
72118;BME280;59992;47.490;8.736;2022-07-01T12:23:21;97007.40;;;19.57;64.47
72118;BME280;59992;47.490;8.736;2022-07-01T12:26:09;97010.05;;;19.45;65.70
72118;BME280;59992;47.490;8.736;2022-07-01T12:28:58;97010.73;;;19.56;64.54
72118;BME280;59992;47.490;8.736;2022-07-01T12:31:56;97008.29;;;19.32;63.52
72118;BME280;59992;47.490;8.736;2022-07-01T12:34:47;97009.92;;;19.42;63.83
72118;BME280;59992;47.490;8.736;2022-07-01T12:37:37;97014.98;;;19.53;62.43
72118;BME280;59992;47.490;8.736;2022-07-01T12:40:27;97018.39;;;19.82;60.62
72118;BME280;59992;47.490;8.736;2022-07-01T12:43:24;97012.92;;;19.97;62.09
72118;BME280;59992;47.490;8.736;2022-07-01T12:46:27;97012.42;;;20.12;60.78
72118;BME280;59992;47.490;8.736;2022-07-01T12:49:20;97013.04;;;20.31;60.01
72118;BME280;59992;47.490;8.736;2022-07-01T12:52:23;97014.15;;;20.41;57.23
72118;BME280;59992;47.490;8.736;2022-07-01T12:55:20;97014.98;;;20.01;57.02
72118;BME280;59992;47.490;8.736;2022-07-01T12:58:10;97011.85;;;19.91;59.15
72118;BME280;59992;47.490;8.736;2022-07-01T13:00:58;97010.91;;;20.06;59.03
72118;BME280;59992;47.490;8.736;2022-07-01T13:03:48;97010.48;;;20.00;58.61
72118;BME280;59992;47.490;8.736;2022-07-01T13:06:37;97011.92;;;20.15;58.39
72118;BME280;59992;47.490;8.736;2022-07-01T13:09:26;97013.83;;;20.34;59.05
72118;BME280;59992;47.490;8.736;2022-07-01T13:12:14;97016.58;;;20.27;59.92
72118;BME280;59992;47.490;8.736;2022-07-01T13:15:04;97018.02;;;20.13;59.63
72118;BME280;59992;47.490;8.736;2022-07-01T13:17:53;97021.23;;;20.24;60.95
72118;BME280;59992;47.490;8.736;2022-07-01T13:20:41;97023.76;;;20.25;58.88
72118;BME280;59992;47.490;8.736;2022-07-01T13:23:30;97018.84;;;20.30;56.74
72118;BME280;59992;47.490;8.736;2022-07-01T13:26:19;97026.87;;;20.44;58.13
72118;BME280;59992;47.490;8.736;2022-07-01T13:29:07;97024.59;;;20.68;58.78
72118;BME280;59992;47.490;8.736;2022-07-01T13:31:56;97026.89;;;20.87;58.38
72118;BME280;59992;47.490;8.736;2022-07-01T13:34:45;97025.09;;;21.00;57.55
72118;BME280;59992;47.490;8.736;2022-07-01T13:37:33;97021.34;;;21.07;57.74
72118;BME280;59992;47.490;8.736;2022-07-01T13:40:22;97024.16;;;21.00;56.32
72118;BME280;59992;47.490;8.736;2022-07-01T13:43:11;97023.78;;;20.92;56.57
72118;BME280;59992;47.490;8.736;2022-07-01T13:45:59;97020.85;;;20.57;56.07
72118;BME280;59992;47.490;8.736;2022-07-01T13:48:48;97021.35;;;20.35;56.54
72118;BME280;59992;47.490;8.736;2022-07-01T13:51:36;97022.52;;;20.30;57.60
72118;BME280;59992;47.490;8.736;2022-07-01T13:54:25;97025.10;;;20.18;59.64
72118;BME280;59992;47.490;8.736;2022-07-01T13:57:13;97022.96;;;20.16;60.27
72118;BME280;59992;47.490;8.736;2022-07-01T14:00:03;97017.95;;;20.17;60.09
72118;BME280;59992;47.490;8.736;2022-07-01T14:02:51;97003.71;;;20.15;58.48
72118;BME280;59992;47.490;8.736;2022-07-01T14:05:40;97018.52;;;19.97;58.73
72118;BME280;59992;47.490;8.736;2022-07-01T14:08:28;97017.75;;;19.88;59.68
72118;BME280;59992;47.490;8.736;2022-07-01T14:11:17;97019.83;;;19.73;58.14
72118;BME280;59992;47.490;8.736;2022-07-01T14:14:05;97022.81;;;19.48;61.92
72118;BME280;59992;47.490;8.736;2022-07-01T14:16:54;97021.20;;;19.54;62.48
72118;BME280;59992;47.490;8.736;2022-07-01T14:19:43;97024.13;;;19.54;61.50
72118;BME280;59992;47.490;8.736;2022-07-01T14:22:32;97024.96;;;19.44;63.54
72118;BME280;59992;47.490;8.736;2022-07-01T14:25:21;97030.26;;;19.39;62.54
72118;BME280;59992;47.490;8.736;2022-07-01T14:28:11;97028.39;;;19.34;61.88
72118;BME280;59992;47.490;8.736;2022-07-01T14:30:59;97026.84;;;19.36;61.31
72118;BME280;59992;47.490;8.736;2022-07-01T14:33:48;97021.84;;;19.30;60.67
72118;BME280;59992;47.490;8.736;2022-07-01T14:36:37;97022.13;;;19.26;62.02
72118;BME280;59992;47.490;8.736;2022-07-01T14:39:25;97025.65;;;19.14;62.89
72118;BME280;59992;47.490;8.736;2022-07-01T14:42:14;97020.73;;;19.09;64.09
72118;BME280;59992;47.490;8.736;2022-07-01T14:45:04;97024.05;;;19.00;63.57
72118;BME280;59992;47.490;8.736;2022-07-01T14:47:52;97022.44;;;18.95;62.24
72118;BME280;59992;47.490;8.736;2022-07-01T14:50:41;97014.52;;;18.90;62.09
72118;BME280;59992;47.490;8.736;2022-07-01T14:53:30;97018.13;;;18.71;61.20
72118;BME280;59992;47.490;8.736;2022-07-01T14:56:19;97013.87;;;18.75;61.50
72118;BME280;59992;47.490;8.736;2022-07-01T14:59:07;97012.83;;;18.72;62.64
72118;BME280;59992;47.490;8.736;2022-07-01T15:01:56;97013.79;;;18.75;61.46